Time;durP1;ratioP1;P1;durP2;ratioP2;P2;SDS_P1;SDS_P2;PMS_P1;PMS_P2;Temp;Humidity;BMP_temperature;BMP_pressure;BME280_temperature;BME280_humidity;BME280_pressure;Samples;Min_cycle;Max_cycle;Signal;HPM_P1;HPM_P2
2024/01/05 00:01:55;;;;;;;1.70;0.60;;;;;;;2.37;100.00;100242.22;5055107;28;20537;-71
2024/01/05 00:04:22;;;;;;;1.50;0.40;;;;;;;2.48;100.00;100235.91;5055301;28;20514;-69
2024/01/05 00:06:49;;;;;;;1.70;0.50;;;;;;;2.44;100.00;100242.84;5054793;28;20921;-70
2024/01/05 00:09:16;;;;;;;3.90;1.30;;;;;;;2.40;100.00;100231.03;5055159;28;20957;-70
2024/01/05 00:11:43;;;;;;;1.70;0.50;;;;;;;2.42;100.00;100247.63;5054502;28;20902;-72
2024/01/05 00:14:10;;;;;;;1.90;0.60;;;;;;;2.55;100.00;100251.72;5055540;28;20470;-71
2024/01/05 00:16:38;;;;;;;5.60;1.23;;;;;;;2.52;100.00;100253.03;5055231;28;20521;-70
2024/01/05 00:19:05;;;;;;;1.50;0.40;;;;;;;2.48;100.00;100249.28;5054541;28;20473;-70
2024/01/05 00:21:32;;;;;;;2.10;0.80;;;;;;;2.50;100.00;100244.47;5054707;28;20462;-70
2024/01/05 00:23:59;;;;;;;1.60;0.50;;;;;;;2.43;100.00;100259.91;5054718;28;20478;-70
2024/01/05 00:26:26;;;;;;;1.50;0.30;;;;;;;2.42;100.00;100258.31;5054450;28;20438;-70
2024/01/05 00:28:53;;;;;;;2.10;1.03;;;;;;;2.45;100.00;100260.47;5054674;28;20450;-70
2024/01/05 00:31:20;;;;;;;2.10;0.90;;;;;;;2.50;100.00;100263.19;5054640;28;20888;-70
2024/01/05 00:33:48;;;;;;;1.70;0.50;;;;;;;2.47;100.00;100263.69;5054810;28;20520;-70
2024/01/05 00:36:14;;;;;;;1.60;0.53;;;;;;;2.49;100.00;100266.94;5054181;28;20800;-70
2024/01/05 00:38:46;;;;;;;1.50;0.30;;;;;;;2.54;100.00;100272.31;5054620;28;20476;-70
2024/01/05 00:41:13;;;;;;;1.57;0.40;;;;;;;2.59;99.71;100264.31;5053977;28;20427;-70
2024/01/05 00:43:40;;;;;;;2.23;0.83;;;;;;;2.54;98.34;100272.31;5054106;28;20573;-70
2024/01/05 00:46:07;;;;;;;2.90;1.30;;;;;;;2.52;98.41;100272.56;5054753;28;20438;-71
2024/01/05 00:48:33;;;;;;;1.90;0.80;;;;;;;2.56;98.18;100270.19;5055047;28;20462;-70
2024/01/05 00:51:01;;;;;;;2.63;0.77;;;;;;;2.56;98.15;100261.34;5054288;28;20470;-70
2024/01/05 00:53:28;;;;;;;1.90;0.70;;;;;;;2.57;98.11;100260.28;5054022;28;20807;-70
2024/01/05 00:55:54;;;;;;;2.00;0.90;;;;;;;2.55;97.89;100254.41;5054599;28;20469;-70
2024/01/05 00:58:21;;;;;;;1.60;0.43;;;;;;;2.61;97.92;100256.88;5054242;28;20781;-70
2024/01/05 01:00:48;;;;;;;2.00;0.83;;;;;;;2.67;98.04;100255.84;5053934;28;20887;-70
2024/01/05 01:03:14;;;;;;;1.83;0.67;;;;;;;2.70;99.24;100244.63;5054379;28;20489;-70
2024/01/05 01:05:41;;;;;;;1.83;0.57;;;;;;;2.75;99.65;100252.69;5054235;28;20442;-71
2024/01/05 01:08:10;;;;;;;2.80;1.03;;;;;;;2.73;100.00;100244.09;5054171;28;20492;-70
2024/01/05 01:10:37;;;;;;;1.80;0.60;;;;;;;2.82;100.00;100232.94;5054038;28;20443;-71
2024/01/05 01:13:04;;;;;;;2.83;1.13;;;;;;;2.80;100.00;100243.09;5054128;28;20454;-70
2024/01/05 01:15:31;;;;;;;2.77;0.77;;;;;;;2.84;99.98;100244.19;5053905;28;20963;-70
2024/01/05 01:17:57;;;;;;;2.40;1.10;;;;;;;2.87;99.24;100254.34;5053903;28;20480;-70
2024/01/05 01:20:24;;;;;;;1.67;0.60;;;;;;;2.87;99.30;100259.69;5053754;28;20529;-70
2024/01/05 01:22:51;;;;;;;2.43;0.60;;;;;;;2.84;99.47;100257.56;5053731;28;20825;-70
2024/01/05 01:25:19;;;;;;;1.97;0.60;;;;;;;2.82;99.70;100259.66;5053989;28;20438;-70
2024/01/05 01:27:45;;;;;;;2.23;0.70;;;;;;;2.85;100.00;100246.59;5053770;28;20449;-70
2024/01/05 01:30:13;;;;;;;2.73;1.03;;;;;;;2.95;99.61;100251.19;5053528;28;20443;-70
2024/01/05 01:32:41;;;;;;;3.23;0.93;;;;;;;2.84;100.00;100250.34;5054068;28;20548;-70
2024/01/05 01:35:08;;;;;;;5.00;1.00;;;;;;;2.80;98.83;100233.19;5053715;28;20439;-70
2024/01/05 01:37:35;;;;;;;2.53;1.40;;;;;;;2.90;98.08;100232.44;5053614;28;20486;-70
2024/01/05 01:40:04;;;;;;;1.90;0.67;;;;;;;2.93;97.40;100226.59;5053655;28;20448;-70
2024/01/05 01:42:32;;;;;;;1.70;0.60;;;;;;;2.90;97.39;100229.78;5053511;28;20462;-70
2024/01/05 01:45:00;;;;;;;2.03;0.70;;;;;;;2.90;97.02;100225.22;5053371;28;20482;-70
2024/01/05 01:47:28;;;;;;;2.53;1.17;;;;;;;2.86;97.20;100228.69;5053654;28;20517;-70
2024/01/05 01:49:56;;;;;;;2.37;0.70;;;;;;;2.87;96.50;100217.72;5053629;28;20442;-70
2024/01/05 01:52:23;;;;;;;1.70;0.43;;;;;;;2.92;95.68;100220.44;5053682;28;20922;-70
2024/01/05 01:54:50;;;;;;;3.17;0.90;;;;;;;2.87;95.49;100215.03;5053596;28;20529;-70
2024/01/05 01:57:17;;;;;;;1.70;0.57;;;;;;;2.89;95.85;100212.91;5053570;28;20478;-70
2024/01/05 01:59:46;;;;;;;1.97;0.50;;;;;;;2.88;95.81;100230.03;5053306;28;20441;-70
2024/01/05 02:02:13;;;;;;;1.87;0.80;;;;;;;2.87;96.22;100227.59;5053183;28;20476;-70
2024/01/05 02:04:41;;;;;;;1.90;0.57;;;;;;;2.76;97.02;100219.53;5053069;28;20484;-70
2024/01/05 02:07:08;;;;;;;1.87;0.90;;;;;;;2.70;96.99;100211.72;5053804;28;20521;-71
2024/01/05 02:09:35;;;;;;;1.90;0.63;;;;;;;2.69;96.68;100226.97;5053644;28;20449;-71
2024/01/05 02:12:02;;;;;;;1.63;0.50;;;;;;;2.66;97.02;100230.16;5053139;28;20497;-71
2024/01/05 02:14:29;;;;;;;1.60;0.47;;;;;;;2.64;97.68;100229.59;5053374;28;20430;-71
2024/01/05 02:16:57;;;;;;;1.90;0.53;;;;;;;2.72;98.34;100231.81;5053443;28;20469;-71
2024/01/05 02:19:24;;;;;;;1.60;0.40;;;;;;;2.74;98.99;100221.63;5053629;28;20525;-71
2024/01/05 02:21:55;;;;;;;2.33;0.63;;;;;;;2.83;99.00;100221.16;5053936;28;20543;-71
2024/01/05 02:24:24;;;;;;;2.23;0.80;;;;;;;2.86;98.07;100221.44;5053072;28;20996;-71
2024/01/05 02:26:50;;;;;;;2.83;1.40;;;;;;;2.86;98.20;100221.44;5052988;28;21009;-71
2024/01/05 02:29:21;;;;;;;2.47;0.97;;;;;;;2.92;97.96;100219.59;5053520;28;20476;-71
2024/01/05 02:31:48;;;;;;;1.93;0.93;;;;;;;2.91;98.55;100218.00;5053513;28;20469;-71
2024/01/05 02:34:15;;;;;;;1.90;0.53;;;;;;;3.02;97.96;100225.84;5053566;28;20865;-71
2024/01/05 02:36:42;;;;;;;3.93;1.03;;;;;;;3.09;97.79;100219.44;5053104;28;20466;-71
2024/01/05 02:39:09;;;;;;;1.77;0.70;;;;;;;3.10;97.32;100213.00;5053736;28;20488;-71
2024/01/05 02:41:37;;;;;;;2.00;0.63;;;;;;;3.00;96.02;100206.53;5052649;28;21033;-71
2024/01/05 02:44:03;;;;;;;1.80;0.70;;;;;;;3.06;95.54;100204.72;5053860;28;20517;-71
2024/01/05 02:46:33;;;;;;;1.60;0.40;;;;;;;3.09;95.13;100196.16;5053161;28;20480;-71
2024/01/05 02:49:00;;;;;;;3.60;0.70;;;;;;;3.05;93.95;100192.38;5052740;28;20442;-71
2024/01/05 02:51:26;;;;;;;2.10;0.63;;;;;;;2.98;93.33;100203.34;5053465;28;20460;-71
2024/01/05 02:53:53;;;;;;;1.87;0.77;;;;;;;2.92;92.58;100193.69;5053758;28;20440;-71
2024/01/05 02:56:21;;;;;;;1.80;0.63;;;;;;;2.89;93.17;100193.41;5053220;28;20460;-71
2024/01/05 02:58:49;;;;;;;1.60;0.43;;;;;;;2.91;92.51;100200.06;5052917;28;20485;-71
2024/01/05 03:01:16;;;;;;;2.10;0.53;;;;;;;2.92;92.37;100204.38;5053733;28;20899;-71
2024/01/05 03:03:44;;;;;;;1.60;0.40;;;;;;;2.89;92.53;100198.75;5055915;28;20898;-71
2024/01/05 03:06:10;;;;;;;1.80;0.67;;;;;;;2.91;92.14;100197.41;5056774;28;20442;-71
2024/01/05 03:08:37;;;;;;;1.60;0.30;;;;;;;2.90;91.61;100195.00;5056740;28;20466;-71
2024/01/05 03:11:04;;;;;;;1.80;0.50;;;;;;;2.81;92.46;100189.34;5056517;28;20487;-71
2024/01/05 03:13:30;;;;;;;1.60;0.40;;;;;;;2.90;92.41;100187.78;5056815;28;20495;-71
2024/01/05 03:15:59;;;;;;;2.40;0.77;;;;;;;2.93;92.41;100184.59;5056737;28;20509;-71
2024/01/05 03:18:25;;;;;;;1.83;0.57;;;;;;;2.89;92.93;100180.03;5056827;28;20450;-71
2024/01/05 03:20:52;;;;;;;3.40;1.07;;;;;;;2.94;93.13;100174.69;5056603;28;20522;-71
2024/01/05 03:23:18;;;;;;;2.20;0.60;;;;;;;2.94;93.19;100172.81;5056338;28;20485;-71
2024/01/05 03:25:46;;;;;;;1.97;0.90;;;;;;;2.87;92.64;100179.47;5056147;28;20552;-72
2024/01/05 03:28:13;;;;;;;2.43;0.97;;;;;;;2.92;93.63;100166.94;5055942;28;20989;-71
2024/01/05 03:30:40;;;;;;;2.70;1.53;;;;;;;2.90;95.28;100166.38;5056160;28;20447;-71
2024/01/05 03:33:08;;;;;;;1.60;0.40;;;;;;;2.94;94.68;100156.78;5055808;28;21064;-71
2024/01/05 03:35:34;;;;;;;2.30;0.77;;;;;;;2.90;94.34;100154.88;5056412;28;20525;-72
2024/01/05 03:38:01;;;;;;;3.60;1.57;;;;;;;2.85;93.97;100149.50;5055703;28;20446;-72
2024/01/05 03:40:28;;;;;;;1.60;0.40;;;;;;;2.83;94.05;100162.31;5055951;28;20533;-72
2024/01/05 03:42:54;;;;;;;2.47;1.03;;;;;;;2.83;93.88;100151.63;5055331;28;21007;-71
2024/01/05 03:45:21;;;;;;;2.10;0.90;;;;;;;2.85;93.61;100155.66;5056019;28;20569;-71
2024/01/05 03:47:48;;;;;;;1.70;0.60;;;;;;;2.86;93.55;100146.56;5055852;28;20470;-71
2024/01/05 03:50:16;;;;;;;1.60;0.40;;;;;;;2.93;93.48;100149.03;5055904;28;20525;-71
2024/01/05 03:52:42;;;;;;;1.73;0.57;;;;;;;2.94;93.46;100138.03;5055771;28;20545;-71
2024/01/05 03:55:09;;;;;;;2.27;0.50;;;;;;;2.89;94.28;100147.94;5055344;28;20434;-70
2024/01/05 03:57:36;;;;;;;1.60;0.40;;;;;;;2.89;95.82;100147.94;5055932;28;20477;-70
2024/01/05 04:00:02;;;;;;;10.90;0.93;;;;;;;2.89;96.02;100148.72;5055479;28;20466;-69
2024/01/05 04:02:29;;;;;;;3.03;0.80;;;;;;;2.90;97.28;100146.84;5055492;28;21001;-70
2024/01/05 04:04:56;;;;;;;3.03;1.07;;;;;;;2.87;97.92;100142.03;5054898;28;21066;-71
2024/01/05 04:07:24;;;;;;;3.87;0.87;;;;;;;2.90;98.53;100141.50;5055816;28;20485;-71
2024/01/05 04:09:50;;;;;;;1.90;0.80;;;;;;;2.90;99.06;100146.84;5055182;28;20533;-71
2024/01/05 04:12:17;;;;;;;3.70;0.80;;;;;;;2.88;98.81;100143.63;5055238;28;20880;-71
2024/01/05 04:14:45;;;;;;;2.10;1.23;;;;;;;2.93;98.75;100141.00;5054289;28;20442;-71
2024/01/05 04:17:12;;;;;;;1.80;0.60;;;;;;;2.87;99.15;100132.13;5054983;28;20442;-71
2024/01/05 04:19:38;;;;;;;1.60;0.43;;;;;;;2.86;99.28;100127.03;5055154;28;20509;-71
2024/01/05 04:22:06;;;;;;;1.70;0.50;;;;;;;2.87;99.02;100123.28;5054918;28;20559;-71
2024/01/05 04:24:35;;;;;;;2.10;0.90;;;;;;;2.78;99.49;100125.66;5055024;28;20481;-71
2024/01/05 04:27:01;;;;;;;1.60;0.50;;;;;;;2.80;99.42;100120.88;5054866;28;20529;-71
2024/01/05 04:29:28;;;;;;;3.87;1.00;;;;;;;2.77;99.61;100119.50;5054867;28;20442;-71
2024/01/05 04:31:54;;;;;;;1.60;0.50;;;;;;;2.78;98.59;100118.44;5054483;28;20541;-71
2024/01/05 04:34:21;;;;;;;2.37;0.50;;;;;;;2.77;98.49;100113.38;5054818;28;20937;-71
2024/01/05 04:36:48;;;;;;;1.60;0.40;;;;;;;2.75;98.21;100112.84;5054211;28;20521;-71
2024/01/05 04:39:14;;;;;;;3.03;1.13;;;;;;;2.75;98.45;100126.19;5054564;28;20470;-71
2024/01/05 04:41:43;;;;;;;1.60;0.40;;;;;;;2.75;98.82;100121.66;5054828;28;20545;-72
2024/01/05 04:44:09;;;;;;;1.70;0.63;;;;;;;2.74;98.30;100120.03;5055032;28;20847;-72
2024/01/05 04:46:36;;;;;;;1.57;0.30;;;;;;;2.70;98.93;100113.63;5054441;28;20524;-71
2024/01/05 04:49:03;;;;;;;2.10;1.00;;;;;;;2.70;98.87;100108.28;5054412;28;20474;-71
2024/01/05 04:51:30;;;;;;;2.30;1.27;;;;;;;2.68;99.01;100102.34;5054287;28;20468;-71
2024/01/05 04:53:56;;;;;;;1.60;0.50;;;;;;;2.71;99.14;100103.72;5054240;28;20980;-71
2024/01/05 04:56:23;;;;;;;1.63;0.60;;;;;;;2.73;99.21;100097.03;5054510;28;20529;-71
2024/01/05 04:58:51;;;;;;;2.23;0.87;;;;;;;2.74;99.17;100095.16;5054420;28;20504;-71
2024/01/05 05:01:18;;;;;;;2.13;1.10;;;;;;;2.70;99.46;100089.56;5053891;28;20462;-70
2024/01/05 05:03:45;;;;;;;1.90;0.63;;;;;;;2.66;99.95;100083.13;5054334;28;20485;-69
2024/01/05 05:06:12;;;;;;;1.70;0.60;;;;;;;2.58;100.00;100075.59;5054081;28;20482;-69
2024/01/05 05:08:38;;;;;;;1.90;0.80;;;;;;;2.57;100.00;100074.00;5054714;28;20447;-69
2024/01/05 05:11:05;;;;;;;1.80;0.80;;;;;;;2.60;100.00;100067.28;5054042;28;20541;-69
2024/01/05 05:13:32;;;;;;;1.90;0.80;;;;;;;2.62;100.00;100068.66;5054034;28;20473;-69
2024/01/05 05:16:00;;;;;;;2.17;0.80;;;;;;;2.57;100.00;100062.47;5053865;28;20550;-70
2024/01/05 05:18:26;;;;;;;3.40;1.53;;;;;;;2.54;100.00;100058.47;5053504;28;20443;-69
2024/01/05 05:20:53;;;;;;;2.37;0.60;;;;;;;2.53;100.00;100051.50;5053936;28;20526;-69
2024/01/05 05:23:19;;;;;;;2.80;1.53;;;;;;;2.57;100.00;100055.28;5053673;28;20882;-70
2024/01/05 05:25:46;;;;;;;2.33;0.47;;;;;;;2.62;100.00;100055.28;5053114;28;20518;-70
2024/01/05 05:28:13;;;;;;;1.80;0.87;;;;;;;2.58;100.00;100054.19;5054339;28;20525;-70
2024/01/05 05:30:39;;;;;;;2.03;0.73;;;;;;;2.59;100.00;100055.81;5053462;28;20525;-70
2024/01/05 05:33:08;;;;;;;1.80;0.70;;;;;;;2.51;100.00;100057.09;5053309;28;21060;-70
2024/01/05 05:38:10;;;;;;;2.33;0.60;;;;;;;2.44;100.00;100053.88;5051745;28;20473;-66
2024/01/05 05:40:37;;;;;;;2.47;1.40;;;;;;;2.35;100.00;100059.97;5053567;28;20446;-67
2024/01/05 05:43:04;;;;;;;2.77;1.60;;;;;;;2.37;100.00;100055.16;5053309;28;20910;-67
2024/01/05 05:45:30;;;;;;;3.43;1.60;;;;;;;2.39;100.00;100061.03;5053781;28;20500;-67
2024/01/05 05:47:57;;;;;;;3.50;1.23;;;;;;;2.36;100.00;100065.06;5053201;28;20526;-67
2024/01/05 05:50:25;;;;;;;1.60;0.40;;;;;;;2.31;100.00;100062.38;5053426;28;20882;-67
2024/01/05 05:52:51;;;;;;;1.90;0.40;;;;;;;2.35;100.00;100068.00;5053413;28;20537;-67
2024/01/05 05:55:18;;;;;;;2.27;1.00;;;;;;;2.38;100.00;100070.13;5053810;28;20442;-67
2024/01/05 05:57:45;;;;;;;1.50;0.40;;;;;;;2.37;100.00;100072.00;5053588;28;20488;-68
2024/01/05 06:00:12;;;;;;;1.90;0.57;;;;;;;2.41;100.00;100066.94;5053216;28;20532;-67
2024/01/05 06:02:39;;;;;;;1.97;0.87;;;;;;;2.39;100.00;100077.06;5053602;28;20516;-67
2024/01/05 06:05:07;;;;;;;1.90;0.93;;;;;;;2.35;100.00;100078.69;5053578;28;20514;-67
2024/01/05 06:07:35;;;;;;;1.60;0.40;;;;;;;2.36;100.00;100078.41;5053315;28;20521;-67
2024/01/05 06:10:02;;;;;;;1.60;0.40;;;;;;;2.38;100.00;100091.50;5053403;28;20496;-67
2024/01/05 06:12:29;;;;;;;1.60;0.50;;;;;;;2.41;100.00;100089.13;5053336;28;20458;-67
2024/01/05 06:14:56;;;;;;;2.60;1.27;;;;;;;2.34;100.00;100091.22;5053246;28;20516;-67
2024/01/05 06:17:22;;;;;;;2.37;0.77;;;;;;;2.39;100.00;100093.13;5053729;28;20430;-67
2024/01/05 06:19:49;;;;;;;1.70;0.60;;;;;;;2.33;100.00;100094.16;5053607;28;20532;-67
2024/01/05 06:22:15;;;;;;;2.67;1.37;;;;;;;2.33;100.00;100094.16;5053292;28;20485;-68
2024/01/05 06:24:44;;;;;;;1.83;0.87;;;;;;;2.35;100.00;100108.88;5052779;28;20550;-70
2024/01/05 06:27:11;;;;;;;2.03;0.73;;;;;;;2.30;100.00;100105.34;5053168;28;20438;-69
2024/01/05 06:29:38;;;;;;;3.50;0.90;;;;;;;2.32;100.00;100108.59;5053261;28;20438;-70
2024/01/05 06:32:05;;;;;;;3.20;1.67;;;;;;;2.28;100.00;100109.09;5052979;28;20548;-70
2024/01/05 06:34:32;;;;;;;1.90;0.43;;;;;;;2.26;100.00;100110.44;5053230;28;20456;-70
2024/01/05 06:36:59;;;;;;;2.23;0.97;;;;;;;2.21;100.00;100119.22;5053044;28;20450;-69
2024/01/05 06:39:25;;;;;;;2.20;0.90;;;;;;;2.21;100.00;100116.53;5056512;28;20442;-69
2024/01/05 06:41:53;;;;;;;2.20;1.03;;;;;;;2.17;100.00;100117.28;5056796;28;20857;-69
2024/01/05 06:44:20;;;;;;;4.83;1.70;;;;;;;2.15;100.00;100120.22;5056631;28;20453;-69
2024/01/05 06:46:46;;;;;;;1.70;0.50;;;;;;;2.10;100.00;100117.53;5056984;28;20482;-69
2024/01/05 06:49:13;;;;;;;1.90;1.07;;;;;;;2.03;100.00;100108.91;5056378;28;20541;-70
2024/01/05 06:51:40;;;;;;;1.80;0.77;;;;;;;1.96;100.00;100116.34;5056374;28;20537;-69
2024/01/05 06:54:07;;;;;;;2.23;1.07;;;;;;;1.88;100.00;100122.16;5057891;28;20831;-69
2024/01/05 06:56:34;;;;;;;1.60;0.50;;;;;;;1.84;100.00;100123.72;5056869;28;20488;-69
2024/01/05 06:59:02;;;;;;;1.77;0.63;;;;;;;1.87;100.00;100124.03;5056222;28;20946;-69
2024/01/05 07:01:29;;;;;;;2.43;1.40;;;;;;;1.87;100.00;100123.22;5056410;28;20560;-69
2024/01/05 07:03:56;;;;;;;2.83;1.43;;;;;;;1.89;100.00;100113.09;5056515;28;20474;-73
2024/01/05 07:06:23;;;;;;;2.27;0.83;;;;;;;1.83;100.00;100106.09;5056298;28;20481;-71
2024/01/05 07:08:49;;;;;;;3.13;1.10;;;;;;;1.78;100.00;100104.19;5056533;28;20878;-71
2024/01/05 07:11:23;;;;;;;1.97;0.63;;;;;;;1.76;100.00;100100.97;5056630;28;20467;-71
2024/01/05 07:13:51;;;;;;;2.13;1.00;;;;;;;1.68;100.00;100091.59;5056435;28;20500;-71
2024/01/05 07:16:20;;;;;;;1.60;0.47;;;;;;;1.73;100.00;100096.97;5056046;28;20821;-71
2024/01/05 07:18:47;;;;;;;1.70;0.70;;;;;;;1.74;100.00;100092.41;5056294;28;20473;-70
2024/01/05 07:21:13;;;;;;;2.43;0.60;;;;;;;1.72;100.00;100094.53;5056341;28;20442;-70
2024/01/05 07:23:40;;;;;;;2.07;0.97;;;;;;;1.71;100.00;100106.25;5056310;28;20449;-70
2024/01/05 07:26:07;;;;;;;2.20;0.93;;;;;;;1.66;100.00;100100.88;5055544;28;20926;-70
2024/01/05 07:28:34;;;;;;;2.00;0.63;;;;;;;1.68;100.00;100091.59;5055713;28;20541;-70
2024/01/05 07:31:04;;;;;;;1.90;0.80;;;;;;;1.71;100.00;100090.25;5055889;28;20430;-70
2024/01/05 07:33:32;;;;;;;1.90;1.00;;;;;;;1.67;100.00;100092.63;5055821;28;20941;-70
2024/01/05 07:36:02;;;;;;;2.00;0.60;;;;;;;1.59;100.00;100089.59;5055823;28;20435;-70
2024/01/05 07:38:28;;;;;;;1.97;0.80;;;;;;;1.58;100.00;100094.13;5056044;28;20423;-70
2024/01/05 07:40:55;;;;;;;3.53;0.97;;;;;;;1.53;100.00;100070.06;5055886;28;20525;-70
2024/01/05 07:43:21;;;;;;;1.50;0.30;;;;;;;1.47;100.00;100079.09;5055724;28;20525;-70
2024/01/05 07:45:48;;;;;;;2.37;0.97;;;;;;;1.47;100.00;100071.91;5055659;28;20496;-70
2024/01/05 07:48:15;;;;;;;1.97;0.93;;;;;;;1.50;100.00;100078.59;5055290;28;20868;-70
2024/01/05 07:50:43;;;;;;;2.63;1.57;;;;;;;1.54;100.00;100073.56;5055140;28;20480;-70
2024/01/05 07:53:10;;;;;;;2.27;1.00;;;;;;;1.51;100.00;100074.88;5055024;28;20843;-70
2024/01/05 07:55:36;;;;;;;4.33;2.37;;;;;;;1.47;100.00;100074.56;5055109;28;21017;-70
2024/01/05 07:58:03;;;;;;;3.70;1.43;;;;;;;1.53;100.00;100078.09;5055566;28;20941;-70
2024/01/05 08:00:31;;;;;;;1.57;0.40;;;;;;;1.54;100.00;100077.03;5055310;28;20445;-70
2024/01/05 08:03:00;;;;;;;1.80;0.70;;;;;;;1.54;100.00;100078.88;5055216;28;20474;-70
2024/01/05 08:05:27;;;;;;;1.60;0.40;;;;;;;1.51;100.00;100080.22;5055144;28;20493;-70
2024/01/05 08:07:55;;;;;;;1.80;0.47;;;;;;;1.56;100.00;100082.13;5055196;28;20524;-69
2024/01/05 08:10:22;;;;;;;2.10;1.40;;;;;;;1.53;100.00;100088.75;5055125;28;20473;-69
2024/01/05 08:12:47;;;;;;;1.57;0.30;;;;;;;1.51;100.00;100080.22;5055390;28;20490;-69
2024/01/05 08:15:14;;;;;;;1.70;0.60;;;;;;;1.52;100.00;100077.28;5055132;28;20466;-69
2024/01/05 08:17:41;;;;;;;2.20;1.43;;;;;;;1.51;100.00;100080.22;5055453;28;20299;-69
2024/01/05 08:20:08;;;;;;;1.60;0.47;;;;;;;1.49;100.00;100076.97;5055267;28;20593;-69
2024/01/05 08:22:35;;;;;;;1.90;0.80;;;;;;;1.50;100.00;100075.91;5054708;28;20465;-69
2024/01/05 08:25:04;;;;;;;3.70;1.57;;;;;;;1.57;100.00;100073.84;5054565;28;20480;-69
2024/01/05 08:27:30;;;;;;;2.77;1.10;;;;;;;1.50;100.00;100076.72;5055092;28;20438;-69
2024/01/05 08:29:57;;;;;;;1.90;0.63;;;;;;;1.52;100.00;100073.81;5054728;28;20434;-69
2024/01/05 08:32:23;;;;;;;2.03;1.07;;;;;;;1.52;100.00;100071.16;5054667;28;20489;-69
2024/01/05 08:34:50;;;;;;;1.70;0.70;;;;;;;1.54;100.00;100071.69;5054622;28;20488;-69
2024/01/05 08:37:17;;;;;;;2.37;1.43;;;;;;;1.51;100.00;100070.34;5054509;28;20465;-69
2024/01/05 08:39:43;;;;;;;2.00;0.80;;;;;;;1.55;100.00;100077.81;5054771;28;20469;-69
2024/01/05 08:42:11;;;;;;;1.93;0.73;;;;;;;1.57;100.00;100071.19;5054164;28;20494;-69
2024/01/05 08:44:40;;;;;;;2.23;0.70;;;;;;;1.61;100.00;100066.94;5054164;28;20984;-70
2024/01/05 08:47:07;;;;;;;2.43;1.10;;;;;;;1.61;100.00;100050.13;5055135;28;20484;-70
2024/01/05 08:49:34;;;;;;;1.60;0.50;;;;;;;1.67;100.00;100047.25;5054970;28;20517;-70
2024/01/05 08:52:01;;;;;;;5.13;0.90;;;;;;;1.68;100.00;100053.38;5054267;28;20458;-72
2024/01/05 08:54:27;;;;;;;1.60;0.40;;;;;;;1.73;100.00;100050.78;5054312;28;20441;-71
2024/01/05 08:56:54;;;;;;;2.60;1.70;;;;;;;1.73;100.00;100053.44;5054323;28;20442;-72
2024/01/05 08:59:22;;;;;;;2.83;1.83;;;;;;;1.72;100.00;100044.59;5054525;28;20953;-72
2024/01/05 09:01:49;;;;;;;5.60;1.60;;;;;;;1.65;100.00;100028.03;5053153;28;20486;-72
2024/01/05 09:04:15;;;;;;;2.40;0.87;;;;;;;1.66;100.00;100029.63;5054192;28;20466;-71
2024/01/05 09:06:42;;;;;;;1.77;0.77;;;;;;;1.72;100.00;100036.59;5053958;28;20514;-72
2024/01/05 09:09:10;;;;;;;1.90;0.60;;;;;;;1.72;100.00;100043.81;5054709;28;20449;-69
2024/01/05 09:11:39;;;;;;;2.77;1.23;;;;;;;1.74;100.00;100047.84;5053955;28;20454;-71
2024/01/05 09:14:05;;;;;;;1.60;0.40;;;;;;;1.68;100.00;100043.53;5054306;28;20449;-71
2024/01/05 09:16:33;;;;;;;1.80;0.90;;;;;;;1.73;100.00;100046.22;5054192;28;20529;-71
2024/01/05 09:19:00;;;;;;;2.07;0.90;;;;;;;1.75;100.00;100044.09;5054061;28;20446;-71
2024/01/05 09:21:27;;;;;;;4.70;3.80;;;;;;;1.85;100.00;100040.69;5054256;28;20504;-71
2024/01/05 09:23:53;;;;;;;2.03;0.77;;;;;;;1.79;100.00;100041.72;5055585;28;20442;-71
2024/01/05 09:26:20;;;;;;;2.53;0.70;;;;;;;1.79;100.00;100055.06;5055094;28;20481;-70
2024/01/05 09:28:46;;;;;;;1.60;0.40;;;;;;;1.79;100.00;100044.41;5054160;28;20859;-70
2024/01/05 09:31:13;;;;;;;2.10;0.73;;;;;;;1.74;100.00;100045.16;5053703;28;20533;-71
2024/01/05 09:33:41;;;;;;;1.60;0.60;;;;;;;1.76;100.00;100040.38;5053891;28;20442;-71
2024/01/05 09:36:08;;;;;;;2.37;0.87;;;;;;;1.79;100.00;100048.94;5053977;28;20446;-71
2024/01/05 09:38:36;;;;;;;2.77;1.00;;;;;;;1.68;100.00;100034.69;5053889;28;20808;-71
2024/01/05 09:41:03;;;;;;;1.60;0.40;;;;;;;1.64;100.00;100031.75;5053518;28;20801;-71
2024/01/05 09:43:30;;;;;;;1.77;0.80;;;;;;;1.68;100.00;100027.50;5053541;28;20533;-71
2024/01/05 09:45:57;;;;;;;1.50;0.40;;;;;;;1.72;100.00;100025.91;5053569;28;20518;-71
2024/01/05 09:48:24;;;;;;;1.90;1.03;;;;;;;1.71;100.00;100026.97;5053953;28;20442;-71
2024/01/05 09:50:55;;;;;;;3.97;1.50;;;;;;;1.74;100.00;100025.69;5053631;28;20430;-71
2024/01/05 09:53:21;;;;;;;2.00;0.90;;;;;;;1.71;100.00;100034.19;5053635;28;20426;-71
2024/01/05 09:55:48;;;;;;;1.50;0.30;;;;;;;1.76;100.00;100043.03;5053645;28;20476;-71
2024/01/05 09:58:16;;;;;;;2.30;0.90;;;;;;;1.80;100.00;100042.53;5053239;28;20525;-71
2024/01/05 10:00:49;;;;;;;1.57;0.43;;;;;;;1.84;100.00;100038.28;5053216;28;20474;-71
2024/01/05 10:03:21;;;;;;;1.90;0.60;;;;;;;1.84;100.00;100032.94;5053408;28;20482;-71
2024/01/05 10:05:48;;;;;;;1.80;0.97;;;;;;;1.78;100.00;100032.13;5053391;28;20469;-71
2024/01/05 10:08:16;;;;;;;1.60;0.40;;;;;;;1.82;100.00;100030.53;5053289;28;20453;-71
2024/01/05 10:10:47;;;;;;;1.67;0.63;;;;;;;1.83;100.00;100031.34;5053313;28;20612;-71
2024/01/05 10:13:13;;;;;;;1.70;0.60;;;;;;;1.86;100.00;100023.63;5057247;28;20454;-71
2024/01/05 10:15:52;;;;;;;4.90;2.30;;;;;;;1.84;100.00;100017.72;5057263;28;20438;-71
2024/01/05 10:18:19;;;;;;;1.97;0.60;;;;;;;1.90;100.00;100013.22;5057444;28;20418;-71
2024/01/05 10:20:46;;;;;;;3.10;1.30;;;;;;;1.84;100.00;100015.06;5057535;28;20446;-71
2024/01/05 10:23:13;;;;;;;1.53;0.40;;;;;;;1.81;100.00;100010.22;5056766;28;20446;-71
2024/01/05 10:25:41;;;;;;;2.03;0.90;;;;;;;1.84;100.00;100011.59;5057076;28;20999;-71
2024/01/05 10:28:20;;;;;;;1.80;0.67;;;;;;;1.85;100.00;100010.53;5057019;28;20442;-71
2024/01/05 10:30:47;;;;;;;4.00;1.03;;;;;;;1.82;100.00;99998.50;5056717;28;20414;-71
2024/01/05 10:33:16;;;;;;;2.17;1.20;;;;;;;1.90;100.00;99998.00;5056732;28;20455;-71
2024/01/05 10:35:42;;;;;;;1.80;0.60;;;;;;;1.92;100.00;99997.75;5057377;28;21001;-71
2024/01/05 10:38:11;;;;;;;1.70;0.70;;;;;;;1.94;100.00;100001.75;5056569;28;20543;-71
2024/01/05 10:40:38;;;;;;;1.70;0.50;;;;;;;1.92;100.00;100000.44;5056874;28;20905;-71
2024/01/05 10:43:12;;;;;;;2.10;0.73;;;;;;;1.80;100.00;99997.13;5056821;28;20541;-71
2024/01/05 10:45:40;;;;;;;3.30;1.60;;;;;;;1.77;100.00;99999.28;5057072;28;20430;-71
2024/01/05 10:48:09;;;;;;;3.30;1.47;;;;;;;1.79;100.00;99988.34;5056284;28;20493;-71
2024/01/05 10:50:37;;;;;;;1.70;0.70;;;;;;;1.84;100.00;99983.03;5056353;28;20474;-71
2024/01/05 10:53:04;;;;;;;3.30;0.93;;;;;;;1.84;100.00;99974.22;5056869;28;20470;-71
2024/01/05 10:55:33;;;;;;;1.67;0.60;;;;;;;1.82;100.00;99973.69;5056892;28;20529;-71
2024/01/05 10:58:00;;;;;;;2.23;0.70;;;;;;;1.84;100.00;99964.31;5056183;28;20929;-71
2024/01/05 11:00:29;;;;;;;1.70;0.60;;;;;;;1.87;100.00;99955.00;5056759;28;20532;-71
2024/01/05 11:03:08;;;;;;;2.40;0.97;;;;;;;1.91;100.00;99953.44;5056356;28;20541;-71
2024/01/05 11:05:36;;;;;;;1.77;0.60;;;;;;;1.88;100.00;99940.59;5056078;28;20465;-70
2024/01/05 11:08:03;;;;;;;2.00;0.70;;;;;;;1.88;100.00;99948.59;5056646;28;20569;-70
2024/01/05 11:10:42;;;;;;;3.10;1.03;;;;;;;1.77;100.00;99940.53;5056587;28;20527;-70
2024/01/05 11:13:23;;;;;;;1.70;0.50;;;;;;;1.81;100.00;99934.66;5055880;28;20540;-70
2024/01/05 11:16:10;;;;;;;1.90;0.80;;;;;;;1.87;100.00;99933.66;5056347;28;20840;-66
2024/01/05 11:19:05;;;;;;;1.60;0.40;;;;;;;1.87;100.00;99939.78;5056080;28;20914;-69
2024/01/05 11:21:40;;;;;;;1.77;0.90;;;;;;;1.88;100.00;99929.91;5056025;28;20506;-70
2024/01/05 11:24:08;;;;;;;3.00;1.33;;;;;;;1.95;100.00;99931.28;5055282;28;20842;-71
2024/01/05 11:26:36;;;;;;;2.90;0.50;;;;;;;1.96;100.00;99932.88;5055911;28;20568;-70
2024/01/05 11:29:03;;;;;;;1.90;0.90;;;;;;;1.98;100.00;99921.94;5056251;28;20477;-70
2024/01/05 11:31:58;;;;;;;1.83;0.50;;;;;;;1.97;100.00;99910.47;5055574;28;20454;-70
2024/01/05 11:34:35;;;;;;;2.07;0.70;;;;;;;1.95;100.00;99901.13;5008978;28;20481;-69